sensor_id;sensor_type;location;lat;lon;timestamp;temperature;humidity
12309;DHT22;6217;48.150;17.142;2024-03-17T00:00:42;12.70;78.90
12309;DHT22;6217;48.150;17.142;2024-03-17T00:04:49;12.70;78.90
12309;DHT22;6217;48.150;17.142;2024-03-17T00:08:55;12.70;78.60
12309;DHT22;6217;48.150;17.142;2024-03-17T00:13:01;12.80;78.20
12309;DHT22;6217;48.150;17.142;2024-03-17T00:17:07;12.70;77.90
12309;DHT22;6217;48.150;17.142;2024-03-17T00:21:13;12.70;77.70
12309;DHT22;6217;48.150;17.142;2024-03-17T00:25:19;12.70;77.60
12309;DHT22;6217;48.150;17.142;2024-03-17T00:29:25;12.70;77.30
12309;DHT22;6217;48.150;17.142;2024-03-17T00:33:31;12.70;77.10
12309;DHT22;6217;48.150;17.142;2024-03-17T00:37:37;12.70;76.90
12309;DHT22;6217;48.150;17.142;2024-03-17T00:41:44;12.70;76.40
12309;DHT22;6217;48.150;17.142;2024-03-17T00:45:52;12.70;76.10
12309;DHT22;6217;48.150;17.142;2024-03-17T00:49:58;12.60;75.80
12309;DHT22;6217;48.150;17.142;2024-03-17T00:54:04;12.50;75.70
12309;DHT22;6217;48.150;17.142;2024-03-17T00:58:10;12.40;75.80
12309;DHT22;6217;48.150;17.142;2024-03-17T01:02:16;12.30;75.70
12309;DHT22;6217;48.150;17.142;2024-03-17T01:06:22;12.20;75.80
12309;DHT22;6217;48.150;17.142;2024-03-17T01:10:28;12.20;75.90
12309;DHT22;6217;48.150;17.142;2024-03-17T01:14:35;12.10;75.90
12309;DHT22;6217;48.150;17.142;2024-03-17T01:18:41;12.00;75.90
12309;DHT22;6217;48.150;17.142;2024-03-17T01:22:49;11.90;75.90
12309;DHT22;6217;48.150;17.142;2024-03-17T01:26:55;11.80;75.90
12309;DHT22;6217;48.150;17.142;2024-03-17T01:31:00;11.80;75.90
12309;DHT22;6217;48.150;17.142;2024-03-17T01:35:11;11.70;75.90
12309;DHT22;6217;48.150;17.142;2024-03-17T01:39:17;11.70;75.90
12309;DHT22;6217;48.150;17.142;2024-03-17T01:43:24;11.60;75.70
12309;DHT22;6217;48.150;17.142;2024-03-17T01:47:30;11.40;75.80
12309;DHT22;6217;48.150;17.142;2024-03-17T01:51:36;11.30;75.60
12309;DHT22;6217;48.150;17.142;2024-03-17T01:55:43;11.20;75.40
12309;DHT22;6217;48.150;17.142;2024-03-17T01:59:50;11.10;75.00
12309;DHT22;6217;48.150;17.142;2024-03-17T02:03:57;11.00;74.70
12309;DHT22;6217;48.150;17.142;2024-03-17T02:08:04;10.90;74.30
12309;DHT22;6217;48.150;17.142;2024-03-17T02:12:12;10.80;74.20
12309;DHT22;6217;48.150;17.142;2024-03-17T02:16:18;10.80;74.00
12309;DHT22;6217;48.150;17.142;2024-03-17T02:20:25;10.70;73.70
12309;DHT22;6217;48.150;17.142;2024-03-17T02:24:51;10.50;73.40
12309;DHT22;6217;48.150;17.142;2024-03-17T02:28:57;10.40;73.10
12309;DHT22;6217;48.150;17.142;2024-03-17T02:33:03;10.30;72.70
12309;DHT22;6217;48.150;17.142;2024-03-17T02:37:09;10.30;72.70
12309;DHT22;6217;48.150;17.142;2024-03-17T02:41:16;10.20;72.50
12309;DHT22;6217;48.150;17.142;2024-03-17T02:45:22;10.10;72.40
12309;DHT22;6217;48.150;17.142;2024-03-17T02:49:28;10.00;72.00
12309;DHT22;6217;48.150;17.142;2024-03-17T02:53:46;10.00;71.80
12309;DHT22;6217;48.150;17.142;2024-03-17T02:57:53;9.90;71.60
12309;DHT22;6217;48.150;17.142;2024-03-17T03:01:59;9.80;71.40
12309;DHT22;6217;48.150;17.142;2024-03-17T03:06:05;9.70;71.60
12309;DHT22;6217;48.150;17.142;2024-03-17T03:10:14;9.60;71.50
12309;DHT22;6217;48.150;17.142;2024-03-17T03:14:20;9.60;71.50
12309;DHT22;6217;48.150;17.142;2024-03-17T03:18:27;9.50;71.60
12309;DHT22;6217;48.150;17.142;2024-03-17T03:22:33;9.40;71.60
12309;DHT22;6217;48.150;17.142;2024-03-17T03:26:39;9.30;71.60
12309;DHT22;6217;48.150;17.142;2024-03-17T03:30:45;9.30;71.70
12309;DHT22;6217;48.150;17.142;2024-03-17T03:34:50;9.30;71.70
12309;DHT22;6217;48.150;17.142;2024-03-17T03:38:56;9.20;71.60
12309;DHT22;6217;48.150;17.142;2024-03-17T03:43:04;9.10;71.60
12309;DHT22;6217;48.150;17.142;2024-03-17T03:47:10;9.10;71.50
12309;DHT22;6217;48.150;17.142;2024-03-17T03:51:15;9.00;71.60
12309;DHT22;6217;48.150;17.142;2024-03-17T03:55:21;9.00;71.70
12309;DHT22;6217;48.150;17.142;2024-03-17T03:59:27;8.90;71.80
12309;DHT22;6217;48.150;17.142;2024-03-17T04:03:34;8.80;71.70
12309;DHT22;6217;48.150;17.142;2024-03-17T04:07:40;8.80;71.80
12309;DHT22;6217;48.150;17.142;2024-03-17T04:11:48;8.80;71.70
12309;DHT22;6217;48.150;17.142;2024-03-17T04:15:55;8.70;71.50
12309;DHT22;6217;48.150;17.142;2024-03-17T04:20:05;8.70;71.40
12309;DHT22;6217;48.150;17.142;2024-03-17T04:24:13;8.60;71.50
12309;DHT22;6217;48.150;17.142;2024-03-17T04:28:19;8.60;71.70
12309;DHT22;6217;48.150;17.142;2024-03-17T04:32:26;8.50;71.60
12309;DHT22;6217;48.150;17.142;2024-03-17T04:36:36;8.50;71.80
12309;DHT22;6217;48.150;17.142;2024-03-17T04:40:42;8.40;71.80
12309;DHT22;6217;48.150;17.142;2024-03-17T04:44:48;8.40;71.80
12309;DHT22;6217;48.150;17.142;2024-03-17T04:48:54;8.40;71.90
12309;DHT22;6217;48.150;17.142;2024-03-17T04:53:00;8.30;72.00
12309;DHT22;6217;48.150;17.142;2024-03-17T04:57:06;8.20;72.30
12309;DHT22;6217;48.150;17.142;2024-03-17T05:01:12;8.10;72.50
12309;DHT22;6217;48.150;17.142;2024-03-17T05:05:18;8.10;72.50
12309;DHT22;6217;48.150;17.142;2024-03-17T05:09:24;8.10;72.70
12309;DHT22;6217;48.150;17.142;2024-03-17T05:13:31;8.10;73.50
12309;DHT22;6217;48.150;17.142;2024-03-17T05:17:37;8.10;72.90
12309;DHT22;6217;48.150;17.142;2024-03-17T05:21:44;8.10;72.60
12309;DHT22;6217;48.150;17.142;2024-03-17T05:25:51;8.10;72.50
12309;DHT22;6217;48.150;17.142;2024-03-17T05:29:57;8.10;72.50
12309;DHT22;6217;48.150;17.142;2024-03-17T05:34:03;8.30;72.30
12309;DHT22;6217;48.150;17.142;2024-03-17T05:38:09;8.30;72.10
12309;DHT22;6217;48.150;17.142;2024-03-17T05:42:16;8.40;71.80
12309;DHT22;6217;48.150;17.142;2024-03-17T05:46:21;8.50;71.70
12309;DHT22;6217;48.150;17.142;2024-03-17T05:50:27;8.60;71.50
12309;DHT22;6217;48.150;17.142;2024-03-17T05:54:33;8.70;71.40
12309;DHT22;6217;48.150;17.142;2024-03-17T05:58:39;8.80;71.10
12309;DHT22;6217;48.150;17.142;2024-03-17T06:02:46;9.60;71.30
12309;DHT22;6217;48.150;17.142;2024-03-17T06:06:52;11.80;67.20
12309;DHT22;6217;48.150;17.142;2024-03-17T06:10:58;14.10;62.20
12309;DHT22;6217;48.150;17.142;2024-03-17T06:15:06;17.60;55.50
12309;DHT22;6217;48.150;17.142;2024-03-17T06:19:12;19.50;50.80
12309;DHT22;6217;48.150;17.142;2024-03-17T06:23:18;19.80;48.70
12309;DHT22;6217;48.150;17.142;2024-03-17T06:27:24;20.20;48.90
12309;DHT22;6217;48.150;17.142;2024-03-17T06:31:30;20.10;49.00
12309;DHT22;6217;48.150;17.142;2024-03-17T06:35:37;20.70;48.00
12309;DHT22;6217;48.150;17.142;2024-03-17T06:39:45;21.20;46.60
12309;DHT22;6217;48.150;17.142;2024-03-17T06:43:51;23.50;43.80
12309;DHT22;6217;48.150;17.142;2024-03-17T06:47:57;25.00;40.50
12309;DHT22;6217;48.150;17.142;2024-03-17T06:52:03;23.10;40.40
12309;DHT22;6217;48.150;17.142;2024-03-17T06:56:09;20.70;43.80
12309;DHT22;6217;48.150;17.142;2024-03-17T07:00:15;19.40;46.10
12309;DHT22;6217;48.150;17.142;2024-03-17T07:04:22;20.10;46.80
12309;DHT22;6217;48.150;17.142;2024-03-17T07:08:29;22.80;41.10
12309;DHT22;6217;48.150;17.142;2024-03-17T07:12:41;21.60;42.50
12309;DHT22;6217;48.150;17.142;2024-03-17T07:16:47;24.20;40.30
12309;DHT22;6217;48.150;17.142;2024-03-17T07:20:56;24.70;39.20
12309;DHT22;6217;48.150;17.142;2024-03-17T07:25:02;24.30;37.70
12309;DHT22;6217;48.150;17.142;2024-03-17T07:29:09;22.00;39.20
12309;DHT22;6217;48.150;17.142;2024-03-17T07:33:15;20.90;43.60
12309;DHT22;6217;48.150;17.142;2024-03-17T07:37:20;19.50;42.90
12309;DHT22;6217;48.150;17.142;2024-03-17T07:41:26;19.50;45.20
12309;DHT22;6217;48.150;17.142;2024-03-17T07:45:32;17.90;45.40
12309;DHT22;6217;48.150;17.142;2024-03-17T07:49:38;17.70;48.60
12309;DHT22;6217;48.150;17.142;2024-03-17T07:53:45;21.50;43.40
12309;DHT22;6217;48.150;17.142;2024-03-17T07:57:53;23.00;39.90
12309;DHT22;6217;48.150;17.142;2024-03-17T08:01:59;24.60;37.50
12309;DHT22;6217;48.150;17.142;2024-03-17T08:06:06;24.80;35.10
12309;DHT22;6217;48.150;17.142;2024-03-17T08:10:13;21.40;39.70
12309;DHT22;6217;48.150;17.142;2024-03-17T08:14:19;22.20;41.40
12309;DHT22;6217;48.150;17.142;2024-03-17T08:18:26;23.90;37.20
12309;DHT22;6217;48.150;17.142;2024-03-17T08:22:32;21.80;39.70
12309;DHT22;6217;48.150;17.142;2024-03-17T08:26:39;21.80;38.90
12309;DHT22;6217;48.150;17.142;2024-03-17T08:30:56;18.90;41.70
12309;DHT22;6217;48.150;17.142;2024-03-17T08:35:06;20.00;41.90
12309;DHT22;6217;48.150;17.142;2024-03-17T08:39:12;20.40;38.50
12309;DHT22;6217;48.150;17.142;2024-03-17T08:43:20;18.60;41.00
12309;DHT22;6217;48.150;17.142;2024-03-17T08:47:26;17.20;43.20
12309;DHT22;6217;48.150;17.142;2024-03-17T08:51:32;16.10;44.80
12309;DHT22;6217;48.150;17.142;2024-03-17T08:55:39;15.60;46.00
12309;DHT22;6217;48.150;17.142;2024-03-17T08:59:48;15.30;45.90
12309;DHT22;6217;48.150;17.142;2024-03-17T09:03:54;15.10;46.30
12309;DHT22;6217;48.150;17.142;2024-03-17T09:08:02;14.80;46.70
12309;DHT22;6217;48.150;17.142;2024-03-17T09:12:08;14.70;46.80
12309;DHT22;6217;48.150;17.142;2024-03-17T09:16:14;14.40;46.70
12309;DHT22;6217;48.150;17.142;2024-03-17T09:20:24;14.20;46.60
12309;DHT22;6217;48.150;17.142;2024-03-17T09:24:30;14.10;46.70
12309;DHT22;6217;48.150;17.142;2024-03-17T09:28:36;14.00;46.50
12309;DHT22;6217;48.150;17.142;2024-03-17T09:32:42;14.00;46.60
12309;DHT22;6217;48.150;17.142;2024-03-17T09:36:49;14.00;46.50
12309;DHT22;6217;48.150;17.142;2024-03-17T09:40:55;14.00;46.80
12309;DHT22;6217;48.150;17.142;2024-03-17T09:45:07;13.80;46.80
12309;DHT22;6217;48.150;17.142;2024-03-17T09:49:17;14.10;47.20
12309;DHT22;6217;48.150;17.142;2024-03-17T09:53:25;14.30;47.20
12309;DHT22;6217;48.150;17.142;2024-03-17T09:57:33;14.30;46.90
12309;DHT22;6217;48.150;17.142;2024-03-17T10:01:41;14.30;46.80
12309;DHT22;6217;48.150;17.142;2024-03-17T10:05:59;14.30;46.90
12309;DHT22;6217;48.150;17.142;2024-03-17T10:10:13;14.80;46.70
12309;DHT22;6217;48.150;17.142;2024-03-17T10:14:19;15.40;46.40
12309;DHT22;6217;48.150;17.142;2024-03-17T10:18:25;15.70;46.00
12309;DHT22;6217;48.150;17.142;2024-03-17T10:22:31;15.70;45.40
12309;DHT22;6217;48.150;17.142;2024-03-17T10:26:42;15.40;45.10
12309;DHT22;6217;48.150;17.142;2024-03-17T10:30:59;14.80;45.30
12309;DHT22;6217;48.150;17.142;2024-03-17T10:35:26;14.40;46.10
12309;DHT22;6217;48.150;17.142;2024-03-17T10:39:33;14.60;46.60
12309;DHT22;6217;48.150;17.142;2024-03-17T10:43:40;14.70;46.40
12309;DHT22;6217;48.150;17.142;2024-03-17T10:47:50;14.30;46.20
12309;DHT22;6217;48.150;17.142;2024-03-17T10:52:05;14.00;46.20
12309;DHT22;6217;48.150;17.142;2024-03-17T10:56:15;14.00;46.30
12309;DHT22;6217;48.150;17.142;2024-03-17T11:00:23;14.00;46.20
12309;DHT22;6217;48.150;17.142;2024-03-17T11:04:29;13.90;46.40
12309;DHT22;6217;48.150;17.142;2024-03-17T11:08:36;14.10;46.50
12309;DHT22;6217;48.150;17.142;2024-03-17T11:16:55;14.70;45.80
12309;DHT22;6217;48.150;17.142;2024-03-17T11:29:31;14.40;46.30
12309;DHT22;6217;48.150;17.142;2024-03-17T11:37:50;14.50;46.40
12309;DHT22;6217;48.150;17.142;2024-03-17T11:42:05;14.70;46.20
12309;DHT22;6217;48.150;17.142;2024-03-17T11:46:16;14.60;46.00
12309;DHT22;6217;48.150;17.142;2024-03-17T11:50:22;14.60;46.30
12309;DHT22;6217;48.150;17.142;2024-03-17T11:54:33;14.20;46.30
12309;DHT22;6217;48.150;17.142;2024-03-17T11:58:41;13.90;46.50
12309;DHT22;6217;48.150;17.142;2024-03-17T12:02:49;13.70;46.80
12309;DHT22;6217;48.150;17.142;2024-03-17T12:06:57;13.70;47.00
12309;DHT22;6217;48.150;17.142;2024-03-17T12:11:14;13.80;47.00
12309;DHT22;6217;48.150;17.142;2024-03-17T12:15:22;13.90;46.90
12309;DHT22;6217;48.150;17.142;2024-03-17T12:19:29;14.10;46.70
12309;DHT22;6217;48.150;17.142;2024-03-17T12:23:34;14.30;46.50
12309;DHT22;6217;48.150;17.142;2024-03-17T12:27:44;14.30;45.70
12309;DHT22;6217;48.150;17.142;2024-03-17T12:31:52;14.40;46.40
12309;DHT22;6217;48.150;17.142;2024-03-17T12:35:58;14.10;46.00
12309;DHT22;6217;48.150;17.142;2024-03-17T12:40:18;14.10;46.00
12309;DHT22;6217;48.150;17.142;2024-03-17T12:44:26;14.20;46.20
12309;DHT22;6217;48.150;17.142;2024-03-17T12:48:32;14.30;46.20
12309;DHT22;6217;48.150;17.142;2024-03-17T12:52:38;14.30;46.00
12309;DHT22;6217;48.150;17.142;2024-03-17T12:56:44;14.30;46.80
12309;DHT22;6217;48.150;17.142;2024-03-17T13:01:08;14.40;46.20
12309;DHT22;6217;48.150;17.142;2024-03-17T13:05:18;14.60;46.10
12309;DHT22;6217;48.150;17.142;2024-03-17T13:09:26;14.60;46.00
12309;DHT22;6217;48.150;17.142;2024-03-17T13:13:34;14.60;46.00
12309;DHT22;6217;48.150;17.142;2024-03-17T13:17:42;14.50;46.20
12309;DHT22;6217;48.150;17.142;2024-03-17T13:21:48;14.40;46.30
12309;DHT22;6217;48.150;17.142;2024-03-17T13:25:54;14.40;46.20
12309;DHT22;6217;48.150;17.142;2024-03-17T13:30:00;14.30;46.00
12309;DHT22;6217;48.150;17.142;2024-03-17T13:34:06;14.20;45.70
12309;DHT22;6217;48.150;17.142;2024-03-17T13:38:12;14.20;45.90
12309;DHT22;6217;48.150;17.142;2024-03-17T13:42:18;14.20;45.70
12309;DHT22;6217;48.150;17.142;2024-03-17T13:46:24;14.20;45.90
12309;DHT22;6217;48.150;17.142;2024-03-17T13:50:30;14.30;45.80
12309;DHT22;6217;48.150;17.142;2024-03-17T13:54:36;14.30;45.80
12309;DHT22;6217;48.150;17.142;2024-03-17T13:58:42;14.40;45.90
12309;DHT22;6217;48.150;17.142;2024-03-17T14:02:50;14.40;45.70
12309;DHT22;6217;48.150;17.142;2024-03-17T14:06:56;14.40;45.90
12309;DHT22;6217;48.150;17.142;2024-03-17T14:11:02;14.50;45.90
12309;DHT22;6217;48.150;17.142;2024-03-17T14:15:11;14.60;45.80
12309;DHT22;6217;48.150;17.142;2024-03-17T14:19:17;14.50;45.90
12309;DHT22;6217;48.150;17.142;2024-03-17T14:23:23;14.70;46.00
12309;DHT22;6217;48.150;17.142;2024-03-17T14:27:30;14.80;45.90
12309;DHT22;6217;48.150;17.142;2024-03-17T14:31:36;14.80;45.60
12309;DHT22;6217;48.150;17.142;2024-03-17T14:35:43;14.70;45.50
12309;DHT22;6217;48.150;17.142;2024-03-17T14:39:53;14.70;45.70
12309;DHT22;6217;48.150;17.142;2024-03-17T14:43:59;14.60;45.70
12309;DHT22;6217;48.150;17.142;2024-03-17T14:48:11;14.50;46.00
12309;DHT22;6217;48.150;17.142;2024-03-17T14:52:18;14.40;46.10
12309;DHT22;6217;48.150;17.142;2024-03-17T14:56:24;14.40;46.00
12309;DHT22;6217;48.150;17.142;2024-03-17T15:00:31;14.40;46.10
12309;DHT22;6217;48.150;17.142;2024-03-17T15:04:37;14.30;46.20
12309;DHT22;6217;48.150;17.142;2024-03-17T15:08:43;14.40;46.20
12309;DHT22;6217;48.150;17.142;2024-03-17T15:12:50;14.30;46.00
12309;DHT22;6217;48.150;17.142;2024-03-17T15:16:56;14.20;46.00
12309;DHT22;6217;48.150;17.142;2024-03-17T15:21:02;14.10;46.10
12309;DHT22;6217;48.150;17.142;2024-03-17T15:25:11;14.10;46.30
12309;DHT22;6217;48.150;17.142;2024-03-17T15:29:17;14.20;46.30
12309;DHT22;6217;48.150;17.142;2024-03-17T15:33:24;14.10;46.30
12309;DHT22;6217;48.150;17.142;2024-03-17T15:37:30;14.00;46.40
12309;DHT22;6217;48.150;17.142;2024-03-17T15:41:37;14.00;46.60
12309;DHT22;6217;48.150;17.142;2024-03-17T15:45:43;14.00;46.70
12309;DHT22;6217;48.150;17.142;2024-03-17T15:49:49;14.00;46.80
12309;DHT22;6217;48.150;17.142;2024-03-17T15:53:55;14.00;46.90
12309;DHT22;6217;48.150;17.142;2024-03-17T15:58:01;14.00;47.20
12309;DHT22;6217;48.150;17.142;2024-03-17T16:02:07;13.90;47.10
12309;DHT22;6217;48.150;17.142;2024-03-17T16:06:18;13.90;47.10
12309;DHT22;6217;48.150;17.142;2024-03-17T16:10:26;13.80;47.10
12309;DHT22;6217;48.150;17.142;2024-03-17T16:14:35;13.70;47.30
12309;DHT22;6217;48.150;17.142;2024-03-17T16:18:44;13.60;47.30
12309;DHT22;6217;48.150;17.142;2024-03-17T16:22:50;13.40;47.50
12309;DHT22;6217;48.150;17.142;2024-03-17T16:26:58;13.30;47.80
12309;DHT22;6217;48.150;17.142;2024-03-17T16:31:05;13.20;47.80
12309;DHT22;6217;48.150;17.142;2024-03-17T16:35:14;13.10;47.90
12309;DHT22;6217;48.150;17.142;2024-03-17T16:39:21;13.00;48.10
12309;DHT22;6217;48.150;17.142;2024-03-17T16:43:48;12.90;48.10
12309;DHT22;6217;48.150;17.142;2024-03-17T16:47:57;12.80;48.30
12309;DHT22;6217;48.150;17.142;2024-03-17T16:52:03;12.70;48.20
12309;DHT22;6217;48.150;17.142;2024-03-17T16:56:10;12.70;49.00
12309;DHT22;6217;48.150;17.142;2024-03-17T17:00:17;12.60;48.40
12309;DHT22;6217;48.150;17.142;2024-03-17T17:04:23;12.60;48.50
12309;DHT22;6217;48.150;17.142;2024-03-17T17:08:31;12.50;48.50
12309;DHT22;6217;48.150;17.142;2024-03-17T17:12:37;12.50;48.60
12309;DHT22;6217;48.150;17.142;2024-03-17T17:16:49;12.40;48.60
12309;DHT22;6217;48.150;17.142;2024-03-17T17:20:55;12.30;48.70
12309;DHT22;6217;48.150;17.142;2024-03-17T17:25:01;12.30;48.80
12309;DHT22;6217;48.150;17.142;2024-03-17T17:29:09;12.20;49.00
12309;DHT22;6217;48.150;17.142;2024-03-17T17:33:16;12.10;49.00
12309;DHT22;6217;48.150;17.142;2024-03-17T17:37:21;12.10;49.10
12309;DHT22;6217;48.150;17.142;2024-03-17T17:41:27;12.00;49.20
12309;DHT22;6217;48.150;17.142;2024-03-17T17:45:34;11.90;49.40
12309;DHT22;6217;48.150;17.142;2024-03-17T17:49:40;11.90;49.60
12309;DHT22;6217;48.150;17.142;2024-03-17T17:53:47;11.90;49.70
12309;DHT22;6217;48.150;17.142;2024-03-17T17:57:54;11.80;49.80
12309;DHT22;6217;48.150;17.142;2024-03-17T18:02:01;11.70;49.80
12309;DHT22;6217;48.150;17.142;2024-03-17T18:06:08;11.70;50.10
12309;DHT22;6217;48.150;17.142;2024-03-17T18:10:14;11.60;50.20
12309;DHT22;6217;48.150;17.142;2024-03-17T18:14:20;11.60;50.30
12309;DHT22;6217;48.150;17.142;2024-03-17T18:18:31;11.50;50.40
12309;DHT22;6217;48.150;17.142;2024-03-17T18:22:37;11.50;50.40
12309;DHT22;6217;48.150;17.142;2024-03-17T18:26:43;11.60;50.50
12309;DHT22;6217;48.150;17.142;2024-03-17T18:30:50;11.60;50.40
12309;DHT22;6217;48.150;17.142;2024-03-17T18:34:56;11.60;50.50
12309;DHT22;6217;48.150;17.142;2024-03-17T18:39:02;11.60;50.70
12309;DHT22;6217;48.150;17.142;2024-03-17T18:43:08;11.50;50.70
12309;DHT22;6217;48.150;17.142;2024-03-17T18:47:14;11.50;50.80
12309;DHT22;6217;48.150;17.142;2024-03-17T18:51:20;11.40;50.80
12309;DHT22;6217;48.150;17.142;2024-03-17T18:55:28;11.40;50.90
12309;DHT22;6217;48.150;17.142;2024-03-17T18:59:34;11.40;51.00
12309;DHT22;6217;48.150;17.142;2024-03-17T19:03:40;11.30;51.00
12309;DHT22;6217;48.150;17.142;2024-03-17T19:07:46;11.30;51.10
12309;DHT22;6217;48.150;17.142;2024-03-17T19:11:55;11.20;51.10
12309;DHT22;6217;48.150;17.142;2024-03-17T19:16:07;11.20;51.30
12309;DHT22;6217;48.150;17.142;2024-03-17T19:20:14;11.10;51.30
12309;DHT22;6217;48.150;17.142;2024-03-17T19:24:21;11.00;51.40
12309;DHT22;6217;48.150;17.142;2024-03-17T19:28:28;11.00;51.50
12309;DHT22;6217;48.150;17.142;2024-03-17T19:32:34;11.00;51.60
12309;DHT22;6217;48.150;17.142;2024-03-17T19:36:42;10.90;51.50
12309;DHT22;6217;48.150;17.142;2024-03-17T19:40:55;10.90;51.60
12309;DHT22;6217;48.150;17.142;2024-03-17T19:45:02;10.80;51.70
12309;DHT22;6217;48.150;17.142;2024-03-17T19:49:09;10.80;51.80
12309;DHT22;6217;48.150;17.142;2024-03-17T19:53:15;10.80;51.90
12309;DHT22;6217;48.150;17.142;2024-03-17T19:57:21;10.80;51.90
12309;DHT22;6217;48.150;17.142;2024-03-17T20:01:27;10.80;51.80
12309;DHT22;6217;48.150;17.142;2024-03-17T20:05:33;10.80;51.80
12309;DHT22;6217;48.150;17.142;2024-03-17T20:09:39;10.80;51.90
12309;DHT22;6217;48.150;17.142;2024-03-17T20:13:46;10.80;52.00
12309;DHT22;6217;48.150;17.142;2024-03-17T20:17:52;10.90;51.90
12309;DHT22;6217;48.150;17.142;2024-03-17T20:21:58;11.00;52.00
12309;DHT22;6217;48.150;17.142;2024-03-17T20:26:03;11.10;51.90
12309;DHT22;6217;48.150;17.142;2024-03-17T20:30:12;11.20;51.70
12309;DHT22;6217;48.150;17.142;2024-03-17T20:34:18;11.30;51.70
12309;DHT22;6217;48.150;17.142;2024-03-17T20:38:24;11.30;51.70
12309;DHT22;6217;48.150;17.142;2024-03-17T20:42:30;11.30;51.80
12309;DHT22;6217;48.150;17.142;2024-03-17T20:46:36;11.20;51.80
12309;DHT22;6217;48.150;17.142;2024-03-17T20:50:42;11.00;52.00
12309;DHT22;6217;48.150;17.142;2024-03-17T20:54:48;10.90;52.10
12309;DHT22;6217;48.150;17.142;2024-03-17T20:58:54;10.80;52.20
12309;DHT22;6217;48.150;17.142;2024-03-17T21:03:00;10.70;52.30
12309;DHT22;6217;48.150;17.142;2024-03-17T21:07:06;10.70;52.50
12309;DHT22;6217;48.150;17.142;2024-03-17T21:11:14;10.70;52.50
12309;DHT22;6217;48.150;17.142;2024-03-17T21:15:21;10.80;52.40
12309;DHT22;6217;48.150;17.142;2024-03-17T21:19:29;10.80;52.70
12309;DHT22;6217;48.150;17.142;2024-03-17T21:23:36;10.80;52.80
12309;DHT22;6217;48.150;17.142;2024-03-17T21:27:43;10.70;52.90
12309;DHT22;6217;48.150;17.142;2024-03-17T21:31:51;10.70;53.00
12309;DHT22;6217;48.150;17.142;2024-03-17T21:35:58;10.70;53.10
12309;DHT22;6217;48.150;17.142;2024-03-17T21:40:05;10.60;53.20
12309;DHT22;6217;48.150;17.142;2024-03-17T21:44:12;10.60;53.30
12309;DHT22;6217;48.150;17.142;2024-03-17T21:48:18;10.50;53.40
12309;DHT22;6217;48.150;17.142;2024-03-17T21:52:25;10.40;53.40
12309;DHT22;6217;48.150;17.142;2024-03-17T21:56:31;10.40;53.40
12309;DHT22;6217;48.150;17.142;2024-03-17T22:00:37;10.30;53.50
12309;DHT22;6217;48.150;17.142;2024-03-17T22:04:43;10.20;53.50
12309;DHT22;6217;48.150;17.142;2024-03-17T22:08:50;10.10;53.60
12309;DHT22;6217;48.150;17.142;2024-03-17T22:12:56;10.10;53.60
12309;DHT22;6217;48.150;17.142;2024-03-17T22:17:01;10.10;53.60
12309;DHT22;6217;48.150;17.142;2024-03-17T22:21:07;10.10;53.60
12309;DHT22;6217;48.150;17.142;2024-03-17T22:25:13;10.10;53.40
12309;DHT22;6217;48.150;17.142;2024-03-17T22:29:19;10.30;53.30
12309;DHT22;6217;48.150;17.142;2024-03-17T22:33:29;10.40;53.10
12309;DHT22;6217;48.150;17.142;2024-03-17T22:37:36;10.50;53.10
12309;DHT22;6217;48.150;17.142;2024-03-17T22:41:41;10.60;52.90
12309;DHT22;6217;48.150;17.142;2024-03-17T22:45:49;10.70;52.80
12309;DHT22;6217;48.150;17.142;2024-03-17T22:49:57;10.70;52.70
12309;DHT22;6217;48.150;17.142;2024-03-17T22:54:04;10.70;52.50
12309;DHT22;6217;48.150;17.142;2024-03-17T22:58:11;10.70;52.50
12309;DHT22;6217;48.150;17.142;2024-03-17T23:02:17;10.70;52.50
12309;DHT22;6217;48.150;17.142;2024-03-17T23:06:23;10.70;52.40
12309;DHT22;6217;48.150;17.142;2024-03-17T23:10:29;10.70;52.30
12309;DHT22;6217;48.150;17.142;2024-03-17T23:14:35;10.60;52.30
12309;DHT22;6217;48.150;17.142;2024-03-17T23:18:41;10.60;52.40
12309;DHT22;6217;48.150;17.142;2024-03-17T23:22:48;10.40;52.40
12309;DHT22;6217;48.150;17.142;2024-03-17T23:26:54;10.30;52.50
12309;DHT22;6217;48.150;17.142;2024-03-17T23:31:00;10.10;52.60
12309;DHT22;6217;48.150;17.142;2024-03-17T23:35:12;10.00;52.70
12309;DHT22;6217;48.150;17.142;2024-03-17T23:39:18;10.00;52.80
12309;DHT22;6217;48.150;17.142;2024-03-17T23:43:25;9.90;52.90
12309;DHT22;6217;48.150;17.142;2024-03-17T23:47:31;9.90;53.00
12309;DHT22;6217;48.150;17.142;2024-03-17T23:51:37;9.90;53.00
12309;DHT22;6217;48.150;17.142;2024-03-17T23:55:43;9.90;53.00
12309;DHT22;6217;48.150;17.142;2024-03-17T23:59:49;10.00;53.00
